createdAt,value
2022-11-13T00:00:19.098Z,12.90
2022-11-13T00:03:05.074Z,13.10
2022-11-13T00:06:01.628Z,13.30
2022-11-13T00:08:47.755Z,13.40
2022-11-13T00:11:33.613Z,13.60
2022-11-13T00:14:19.658Z,13.80
2022-11-13T00:17:05.579Z,13.80
2022-11-13T00:19:51.616Z,13.80
2022-11-13T00:22:37.546Z,13.80
2022-11-13T00:25:23.596Z,13.90
2022-11-13T00:28:09.344Z,14.00
2022-11-13T00:30:59.655Z,14.20
2022-11-13T00:34:05.703Z,14.30
2022-11-13T00:36:51.148Z,14.40
2022-11-13T00:39:37.074Z,14.50
2022-11-13T00:42:22.950Z,14.60
2022-11-13T00:45:09.143Z,14.70
2022-11-13T00:47:54.727Z,14.70
2022-11-13T00:50:40.791Z,14.80
2022-11-13T00:53:27.196Z,14.80
2022-11-13T00:56:13.116Z,14.80
2022-11-13T00:58:59.263Z,14.70
2022-11-13T01:01:45.281Z,14.70
2022-11-13T01:04:31.132Z,14.70
2022-11-13T01:07:17.461Z,14.80
2022-11-13T01:10:05.981Z,14.70
2022-11-13T01:12:51.884Z,14.70
2022-11-13T01:15:42.393Z,14.70
2022-11-13T01:18:28.731Z,14.80
2022-11-13T01:21:23.697Z,14.70
2022-11-13T01:24:09.852Z,14.70
2022-11-13T01:26:55.807Z,14.60
2022-11-13T01:29:41.997Z,14.60
2022-11-13T01:32:28.001Z,14.60
2022-11-13T01:35:14.193Z,14.50
2022-11-13T01:38:00.162Z,14.50
2022-11-13T01:40:47.258Z,14.40
2022-11-13T01:43:36.715Z,14.40
2022-11-13T01:46:33.378Z,14.40
2022-11-13T01:49:27.835Z,14.40
2022-11-13T01:52:21.075Z,14.40
2022-11-13T01:55:19.123Z,14.40
2022-11-13T01:58:07.783Z,14.40
2022-11-13T02:00:53.817Z,14.30
2022-11-13T02:03:39.687Z,14.20
2022-11-13T02:06:28.319Z,14.30
2022-11-13T02:09:16.011Z,14.30
2022-11-13T02:12:01.813Z,14.30
2022-11-13T02:14:52.692Z,14.30
2022-11-13T02:17:57.133Z,14.20
2022-11-13T02:21:15.245Z,14.30
2022-11-13T02:24:13.186Z,14.20
2022-11-13T02:27:03.181Z,14.10
2022-11-13T02:29:49.330Z,13.90
2022-11-13T02:32:35.177Z,13.70
2022-11-13T02:35:29.436Z,13.60
2022-11-13T02:38:15.111Z,13.40
2022-11-13T02:41:01.147Z,13.20
2022-11-13T02:43:46.932Z,13.00
2022-11-13T02:46:33.591Z,12.90
2022-11-13T02:49:19.224Z,12.90
2022-11-13T02:52:05.161Z,12.80
2022-11-13T02:54:51.203Z,12.70
2022-11-13T02:57:37.063Z,12.50
2022-11-13T03:00:23.076Z,12.40
2022-11-13T03:03:08.822Z,12.20
2022-11-13T03:05:54.732Z,12.00
2022-11-13T03:08:40.836Z,11.90
2022-11-13T03:11:26.731Z,11.80
2022-11-13T03:14:12.766Z,11.80
2022-11-13T03:16:58.789Z,11.80
2022-11-13T03:19:45.506Z,11.70
2022-11-13T03:22:31.287Z,11.70
2022-11-13T03:25:17.447Z,11.60
2022-11-13T03:28:03.412Z,11.80
2022-11-13T03:30:49.388Z,12.10
2022-11-13T03:33:35.508Z,12.80
2022-11-13T03:36:21.443Z,13.20
2022-11-13T03:39:07.212Z,13.40
2022-11-13T03:41:53.081Z,13.50
2022-11-13T03:44:38.886Z,13.50
2022-11-13T03:47:24.836Z,13.50
2022-11-13T03:50:10.685Z,13.60
2022-11-13T03:52:56.529Z,13.50
2022-11-13T03:55:43.204Z,13.50
2022-11-13T03:58:29.192Z,13.40
2022-11-13T04:01:15.432Z,13.40
2022-11-13T04:04:01.445Z,13.40
2022-11-13T04:06:47.403Z,13.30
2022-11-13T04:09:33.350Z,13.40
2022-11-13T04:12:19.320Z,13.40
2022-11-13T04:15:06.154Z,13.30
2022-11-13T04:17:52.189Z,13.30
2022-11-13T04:20:38.135Z,13.20
2022-11-13T04:23:24.219Z,13.20
2022-11-13T04:26:10.090Z,13.10
2022-11-13T04:28:55.630Z,13.00
2022-11-13T04:31:41.604Z,12.90
2022-11-13T04:34:27.430Z,12.80
2022-11-13T04:37:13.375Z,12.70
2022-11-13T04:39:59.356Z,12.70
2022-11-13T04:42:51.123Z,12.60
2022-11-13T04:45:37.392Z,12.50
2022-11-13T04:48:23.319Z,12.40
2022-11-13T04:51:11.793Z,12.40
2022-11-13T04:53:57.673Z,12.30
2022-11-13T04:56:43.830Z,12.20
2022-11-13T04:59:29.945Z,12.10
2022-11-13T05:02:15.787Z,12.20
2022-11-13T05:05:04.991Z,12.10
2022-11-13T05:07:52.201Z,12.10
2022-11-13T05:10:38.229Z,12.00
2022-11-13T05:13:24.060Z,11.90
2022-11-13T05:16:12.192Z,11.80
2022-11-13T05:18:58.696Z,11.70
2022-11-13T05:21:44.787Z,11.70
2022-11-13T05:24:31.107Z,11.70
2022-11-13T05:27:17.783Z,11.70
2022-11-13T05:30:04.544Z,11.70
2022-11-13T05:32:51.699Z,11.60
2022-11-13T05:35:37.316Z,11.70
2022-11-13T05:38:23.129Z,11.60
2022-11-13T05:41:10.903Z,11.60
2022-11-13T05:43:59.817Z,11.70
2022-11-13T05:46:46.173Z,11.70
2022-11-13T05:49:32.192Z,11.70
2022-11-13T05:52:18.185Z,11.60
2022-11-13T05:55:05.679Z,11.60
2022-11-13T05:57:51.401Z,11.60
2022-11-13T06:00:37.289Z,11.50
2022-11-13T06:03:23.056Z,11.50
2022-11-13T06:06:11.236Z,11.60
2022-11-13T06:08:58.988Z,11.60
2022-11-13T06:11:44.963Z,11.70
2022-11-13T06:14:30.972Z,11.80
2022-11-13T06:17:16.913Z,11.90
2022-11-13T06:20:03.120Z,12.00
2022-11-13T06:22:48.887Z,12.00
2022-11-13T06:25:34.758Z,12.00
2022-11-13T06:28:20.751Z,11.90
2022-11-13T06:31:09.409Z,12.00
2022-11-13T06:33:55.706Z,12.00
2022-11-13T06:36:41.972Z,12.00
2022-11-13T06:39:28.125Z,12.00
2022-11-13T06:42:13.941Z,12.10
2022-11-13T06:44:59.904Z,12.20
2022-11-13T06:47:45.675Z,12.20
2022-11-13T06:50:31.620Z,12.20
2022-11-13T06:53:18.137Z,12.20
2022-11-13T06:56:06.231Z,12.20
2022-11-13T06:58:52.390Z,12.30
2022-11-13T07:01:38.441Z,12.50
2022-11-13T07:04:24.209Z,13.20
2022-11-13T07:07:10.194Z,14.30
2022-11-13T07:09:55.860Z,15.30
2022-11-13T07:12:41.912Z,16.10
2022-11-13T07:15:29.409Z,16.60
2022-11-13T07:18:17.213Z,16.70
2022-11-13T07:21:08.511Z,16.70
2022-11-13T07:23:54.096Z,16.70
2022-11-13T07:26:40.104Z,16.90
2022-11-13T07:29:26.082Z,16.90
2022-11-13T07:32:11.974Z,17.00
2022-11-13T07:34:58.062Z,17.30
2022-11-13T07:37:44.439Z,17.30
2022-11-13T07:40:30.412Z,17.30
2022-11-13T07:43:16.456Z,17.30
2022-11-13T07:46:03.061Z,17.20
2022-11-13T07:48:49.087Z,17.10
2022-11-13T07:51:35.101Z,17.30
2022-11-13T07:54:21.056Z,16.50
2022-11-13T07:57:06.993Z,15.90
2022-11-13T07:59:52.881Z,16.00
2022-11-13T08:02:38.748Z,16.10
2022-11-13T08:05:24.804Z,16.90
2022-11-13T08:08:15.117Z,17.50
2022-11-13T08:11:09.286Z,17.90
2022-11-13T08:13:54.968Z,18.30
2022-11-13T08:16:41.140Z,18.50
2022-11-13T08:19:26.795Z,18.70
2022-11-13T08:22:12.625Z,18.70
2022-11-13T08:24:58.710Z,18.30
2022-11-13T08:27:44.624Z,18.40
2022-11-13T08:30:30.548Z,19.10
2022-11-13T08:33:16.549Z,19.10
2022-11-13T08:36:02.459Z,18.90
2022-11-13T08:38:48.704Z,18.80
2022-11-13T08:41:34.519Z,19.10
2022-11-13T08:44:20.508Z,19.50
2022-11-13T08:47:06.541Z,19.90
2022-11-13T08:49:52.376Z,19.90
2022-11-13T08:52:38.264Z,19.70
2022-11-13T08:55:24.659Z,19.10
2022-11-13T08:58:10.606Z,19.00
2022-11-13T09:01:01.347Z,18.60
2022-11-13T09:03:49.425Z,18.60
2022-11-13T09:06:35.514Z,18.50
2022-11-13T09:09:22.638Z,18.60
2022-11-13T09:12:08.425Z,18.50
2022-11-13T09:14:54.231Z,18.90
2022-11-13T09:17:40.321Z,19.20
2022-11-13T09:20:27.246Z,19.50
2022-11-13T09:23:13.190Z,19.60
2022-11-13T09:26:02.635Z,19.90
2022-11-13T09:28:48.969Z,19.60
2022-11-13T09:31:34.664Z,19.50
2022-11-13T09:34:20.702Z,19.30
2022-11-13T09:37:06.730Z,19.70
2022-11-13T09:39:52.736Z,20.00
2022-11-13T09:42:41.494Z,20.20
2022-11-13T09:45:28.564Z,20.20
2022-11-13T09:48:27.627Z,19.90
2022-11-13T09:51:19.182Z,19.80
2022-11-13T09:54:14.346Z,20.10
2022-11-13T09:57:23.035Z,20.00
2022-11-13T10:00:21.791Z,20.40
2022-11-13T10:04:00.737Z,20.90
2022-11-13T10:06:54.828Z,21.10
2022-11-13T10:10:18.115Z,20.50
2022-11-13T10:13:05.752Z,19.70
2022-11-13T10:16:04.267Z,18.80
2022-11-13T10:18:50.956Z,17.90
2022-11-13T10:21:52.086Z,17.40
2022-11-13T10:24:44.352Z,17.00
2022-11-13T10:27:30.297Z,16.70
2022-11-13T10:30:18.025Z,16.70
2022-11-13T10:33:09.249Z,16.60
2022-11-13T10:36:33.036Z,16.70
2022-11-13T10:39:18.884Z,16.60
2022-11-13T10:42:04.763Z,16.40
2022-11-13T10:45:00.716Z,16.30
2022-11-13T10:48:04.220Z,16.30
2022-11-13T10:50:58.136Z,16.20
2022-11-13T10:53:44.229Z,16.10
2022-11-13T10:56:31.123Z,15.90
2022-11-13T10:59:19.438Z,15.70
2022-11-13T11:02:17.826Z,15.70
2022-11-13T11:05:03.684Z,15.70
2022-11-13T11:07:50.468Z,15.90
2022-11-13T11:10:57.272Z,15.90
2022-11-13T11:13:43.843Z,15.90
2022-11-13T11:16:30.785Z,15.80
2022-11-13T11:19:20.187Z,15.80
2022-11-13T11:22:13.348Z,15.80
2022-11-13T11:25:18.168Z,15.80
2022-11-13T11:28:04.305Z,15.90
2022-11-13T11:31:03.453Z,15.90
2022-11-13T11:33:59.258Z,15.80
2022-11-13T11:37:06.155Z,15.70
2022-11-13T11:39:58.048Z,15.60
2022-11-13T11:43:03.648Z,15.50
2022-11-13T11:45:49.756Z,15.50
2022-11-13T11:48:35.549Z,15.50
2022-11-13T11:51:47.055Z,15.60
2022-11-13T11:54:34.347Z,15.50
2022-11-13T11:57:38.446Z,15.50
2022-11-13T12:00:25.512Z,15.60
2022-11-13T12:03:44.141Z,15.60
2022-11-13T12:06:58.231Z,15.60
2022-11-13T12:09:59.320Z,15.70
2022-11-13T12:13:10.813Z,15.80
2022-11-13T12:16:15.029Z,15.90
2022-11-13T12:19:26.317Z,15.80
2022-11-13T12:22:30.839Z,15.70
2022-11-13T12:25:36.420Z,15.70
2022-11-13T12:28:38.405Z,15.60
2022-11-13T12:31:54.988Z,15.70
2022-11-13T12:34:55.370Z,15.80
2022-11-13T12:37:53.633Z,15.90
2022-11-13T12:40:44.239Z,16.00
2022-11-13T12:43:51.703Z,16.00
2022-11-13T12:46:40.175Z,15.90
2022-11-13T12:49:32.014Z,15.90
2022-11-13T12:52:21.375Z,15.80
2022-11-13T12:55:24.231Z,15.80
2022-11-13T12:58:27.389Z,15.70
2022-11-13T13:01:20.766Z,15.70
2022-11-13T13:04:37.493Z,15.60
2022-11-13T13:07:34.279Z,15.60
2022-11-13T13:10:38.337Z,15.50
2022-11-13T13:14:08.551Z,15.40
2022-11-13T13:17:05.756Z,15.40
2022-11-13T13:20:05.389Z,15.50
2022-11-13T13:22:59.273Z,15.50
2022-11-13T13:25:45.303Z,15.40
2022-11-13T13:28:31.979Z,15.40
2022-11-13T13:31:42.365Z,15.30
2022-11-13T13:34:37.168Z,15.20
2022-11-13T13:37:41.353Z,15.20
2022-11-13T13:41:00.687Z,15.10
2022-11-13T13:44:01.692Z,15.10
2022-11-13T13:46:47.431Z,15.20
2022-11-13T13:49:34.225Z,15.30
2022-11-13T13:52:26.894Z,15.30
2022-11-13T13:55:31.462Z,15.30
2022-11-13T13:58:23.150Z,15.40
2022-11-13T14:01:19.747Z,15.30
2022-11-13T14:04:20.908Z,15.20
2022-11-13T14:07:20.458Z,15.20
2022-11-13T14:10:12.995Z,15.20
2022-11-13T14:12:58.664Z,15.20
2022-11-13T14:15:44.769Z,15.10
2022-11-13T14:18:32.015Z,15.00
2022-11-13T14:21:23.372Z,15.00
2022-11-13T14:24:46.091Z,14.90
2022-11-13T14:27:32.286Z,14.80
2022-11-13T14:30:26.967Z,14.70
2022-11-13T14:33:22.547Z,14.60
2022-11-13T14:36:09.077Z,14.40
2022-11-13T14:38:56.001Z,14.30
2022-11-13T14:41:53.188Z,14.10
2022-11-13T14:44:39.320Z,14.00
2022-11-13T14:47:31.246Z,13.90
2022-11-13T14:50:35.401Z,13.90
2022-11-13T14:53:39.865Z,13.80
2022-11-13T14:56:41.102Z,13.80
2022-11-13T14:59:28.281Z,13.70
2022-11-13T15:02:14.326Z,13.80
2022-11-13T15:05:00.352Z,13.70
2022-11-13T15:07:46.843Z,13.60
2022-11-13T15:10:32.690Z,13.70
2022-11-13T15:13:18.700Z,13.70
2022-11-13T15:16:05.909Z,13.60
2022-11-13T15:18:57.544Z,13.60
2022-11-13T15:22:05.546Z,13.50
2022-11-13T15:24:52.604Z,13.40
2022-11-13T15:27:42.927Z,13.30
2022-11-13T15:30:29.479Z,13.30
2022-11-13T15:33:16.418Z,13.20
2022-11-13T15:36:02.396Z,13.20
2022-11-13T15:38:48.626Z,13.10
2022-11-13T15:41:36.173Z,13.00
2022-11-13T15:44:21.960Z,13.00
2022-11-13T15:47:37.554Z,13.00
2022-11-13T15:50:23.566Z,12.90
2022-11-13T15:53:12.341Z,12.80
2022-11-13T15:56:02.942Z,12.80
2022-11-13T15:58:48.912Z,12.80
2022-11-13T16:01:34.944Z,12.70
2022-11-13T16:04:22.277Z,12.70
2022-11-13T16:07:21.271Z,12.70
2022-11-13T16:10:10.371Z,12.70
2022-11-13T16:12:56.581Z,12.60
2022-11-13T16:15:42.659Z,12.60
2022-11-13T16:18:31.049Z,12.50
2022-11-13T16:21:19.073Z,12.50
2022-11-13T16:24:06.177Z,12.40
2022-11-13T16:26:56.624Z,12.30
2022-11-13T16:29:44.020Z,12.20
2022-11-13T16:32:29.792Z,12.10
2022-11-13T16:35:17.351Z,12.10
2022-11-13T16:38:03.488Z,12.10
2022-11-13T16:40:49.520Z,12.10
2022-11-13T16:43:35.480Z,12.10
2022-11-13T16:46:28.118Z,12.10
2022-11-13T16:49:19.026Z,12.20
2022-11-13T16:52:05.373Z,12.30
2022-11-13T16:54:51.594Z,12.30
2022-11-13T16:57:38.254Z,12.30
2022-11-13T17:00:25.585Z,12.50
2022-11-13T17:03:11.413Z,12.60
2022-11-13T17:05:57.796Z,12.70
2022-11-13T17:08:43.717Z,12.60
2022-11-13T17:11:31.661Z,12.70
2022-11-13T17:14:17.517Z,12.70
2022-11-13T17:17:08.638Z,12.70
2022-11-13T17:19:54.612Z,12.70
2022-11-13T17:22:48.011Z,12.70
2022-11-13T17:25:36.109Z,12.60
2022-11-13T17:28:22.029Z,12.60
2022-11-13T17:31:10.337Z,12.70
2022-11-13T17:33:56.203Z,12.80
2022-11-13T17:36:42.162Z,12.70
2022-11-13T17:39:28.399Z,12.70
2022-11-13T17:42:14.194Z,12.60
2022-11-13T17:45:00.036Z,12.50
2022-11-13T17:47:46.078Z,12.40
2022-11-13T17:50:32.216Z,12.40
2022-11-13T17:53:17.956Z,12.50
2022-11-13T17:56:08.100Z,12.40
2022-11-13T17:58:54.432Z,12.40
2022-11-13T18:01:40.399Z,12.40
2022-11-13T18:04:26.488Z,12.30
2022-11-13T18:07:12.264Z,12.30
2022-11-13T18:09:58.313Z,12.20
2022-11-13T18:12:44.448Z,12.30
2022-11-13T18:15:30.130Z,12.20
2022-11-13T18:18:16.225Z,12.30
2022-11-13T18:21:24.995Z,12.30
2022-11-13T18:24:17.594Z,12.30
2022-11-13T18:27:06.098Z,12.40
2022-11-13T18:29:52.355Z,12.40
2022-11-13T18:32:38.119Z,12.40
2022-11-13T18:35:23.817Z,12.40
2022-11-13T18:38:09.622Z,12.50
2022-11-13T18:41:13.515Z,12.50
2022-11-13T18:43:59.785Z,12.50
2022-11-13T18:46:45.875Z,12.70
2022-11-13T18:49:31.703Z,12.70
2022-11-13T18:52:17.778Z,12.70
2022-11-13T18:55:03.553Z,12.80
2022-11-13T18:57:49.232Z,12.90
2022-11-13T19:00:35.234Z,12.90
2022-11-13T19:03:22.472Z,12.80
2022-11-13T19:06:10.190Z,12.80
2022-11-13T19:09:02.348Z,12.80
2022-11-13T19:11:50.170Z,12.90
2022-11-13T19:14:35.887Z,12.90
2022-11-13T19:17:21.961Z,12.90
2022-11-13T19:20:08.885Z,12.90
2022-11-13T19:22:54.797Z,12.80
2022-11-13T19:25:40.750Z,12.80
2022-11-13T19:28:27.424Z,12.80
2022-11-13T19:31:15.407Z,12.70
2022-11-13T19:34:04.078Z,12.60
2022-11-13T19:36:51.438Z,12.60
2022-11-13T19:39:37.456Z,12.60
2022-11-13T19:42:23.340Z,12.50
2022-11-13T19:45:09.786Z,12.50
2022-11-13T19:47:55.553Z,12.50
2022-11-13T19:50:41.216Z,12.50
2022-11-13T19:53:27.272Z,12.40
2022-11-13T19:56:18.186Z,12.30
2022-11-13T19:59:04.072Z,12.20
2022-11-13T20:01:50.297Z,12.20
2022-11-13T20:04:36.248Z,12.10
2022-11-13T20:07:22.193Z,12.00
2022-11-13T20:10:08.539Z,11.90
2022-11-13T20:12:54.446Z,11.90
2022-11-13T20:15:40.399Z,11.90
2022-11-13T20:18:26.470Z,11.80
2022-11-13T20:21:13.057Z,11.70
2022-11-13T20:23:59.952Z,11.60
2022-11-13T20:26:49.183Z,11.60
2022-11-13T20:29:35.126Z,11.50
2022-11-13T20:32:21.111Z,11.40
2022-11-13T20:35:08.721Z,11.40
2022-11-13T20:37:54.370Z,11.30
2022-11-13T20:40:40.405Z,11.30
2022-11-13T20:43:26.337Z,11.30
2022-11-13T20:46:14.396Z,11.30
2022-11-13T20:49:01.414Z,11.20
2022-11-13T20:51:47.177Z,11.20
2022-11-13T20:54:33.332Z,11.20
2022-11-13T20:57:21.336Z,11.20
2022-11-13T21:00:08.067Z,11.20
2022-11-13T21:02:53.856Z,11.10
2022-11-13T21:05:39.940Z,11.10
2022-11-13T21:08:26.636Z,11.20
2022-11-13T21:11:27.631Z,11.10
2022-11-13T21:14:15.524Z,11.20
2022-11-13T21:17:01.367Z,11.20
2022-11-13T21:19:47.282Z,11.30
2022-11-13T21:22:33.317Z,11.20
2022-11-13T21:25:19.791Z,11.30
2022-11-13T21:28:06.478Z,11.30
2022-11-13T21:30:54.458Z,11.20
2022-11-13T21:33:42.390Z,11.30
2022-11-13T21:36:29.136Z,11.30
2022-11-13T21:39:15.491Z,11.20
2022-11-13T21:42:01.551Z,11.20
2022-11-13T21:44:47.166Z,11.20
2022-11-13T21:47:33.073Z,11.20
2022-11-13T21:50:18.900Z,11.20
2022-11-13T21:53:04.700Z,11.20
2022-11-13T21:55:51.276Z,11.10
2022-11-13T21:58:39.449Z,11.00
2022-11-13T22:01:26.677Z,11.00
2022-11-13T22:04:12.523Z,11.00
2022-11-13T22:06:58.541Z,11.00
2022-11-13T22:09:44.495Z,11.00
2022-11-13T22:12:30.230Z,10.90
2022-11-13T22:15:16.157Z,10.90
2022-11-13T22:18:02.118Z,10.90
2022-11-13T22:20:49.309Z,10.90
2022-11-13T22:23:35.757Z,10.90
2022-11-13T22:26:23.269Z,10.80
2022-11-13T22:29:09.177Z,10.80
2022-11-13T22:31:54.898Z,10.70
2022-11-13T22:34:40.939Z,10.70
2022-11-13T22:37:26.748Z,10.60
2022-11-13T22:40:13.395Z,10.60
2022-11-13T22:42:59.959Z,10.50
2022-11-13T22:45:46.002Z,10.50
2022-11-13T22:48:32.847Z,10.50
2022-11-13T22:51:21.156Z,10.40
2022-11-13T22:54:09.885Z,10.40
2022-11-13T22:56:56.684Z,10.30
2022-11-13T22:59:42.443Z,10.30
2022-11-13T23:02:28.282Z,10.30
2022-11-13T23:05:14.402Z,10.20
2022-11-13T23:08:00.428Z,10.20
2022-11-13T23:10:52.724Z,10.10
2022-11-13T23:13:43.806Z,10.10
2022-11-13T23:16:30.831Z,10.10
2022-11-13T23:19:16.667Z,10.20
2022-11-13T23:22:02.647Z,10.20
2022-11-13T23:24:48.334Z,10.20
2022-11-13T23:27:35.405Z,10.10
2022-11-13T23:30:21.408Z,10.10
2022-11-13T23:33:07.756Z,10.10
2022-11-13T23:35:54.805Z,10.10
2022-11-13T23:38:41.716Z,10.10
2022-11-13T23:41:27.554Z,10.20
2022-11-13T23:44:13.492Z,10.20
2022-11-13T23:46:59.453Z,10.20
2022-11-13T23:49:45.507Z,10.20
2022-11-13T23:52:31.490Z,10.20
2022-11-13T23:55:17.660Z,10.20
2022-11-13T23:58:05.402Z,10.20
